Time;durP1;ratioP1;P1;durP2;ratioP2;P2;SDS_P1;SDS_P2;PMS_P1;PMS_P2;Temp;Humidity;BMP_temperature;BMP_pressure;BME280_temperature;BME280_humidity;BME280_pressure;Samples;Min_cycle;Max_cycle;Signal;HPM_P1;HPM_P2
2022/07/22 00:00:08;;;;;;;9.45;2.33;;;;;;;;;;5106637;27;20162;-63
2022/07/22 00:02:34;;;;;;;14.75;3.05;;;;;;;;;;5100391;27;20090;-63
2022/07/22 00:05:01;;;;;;;12.75;2.25;;;;;;;;;;5099249;27;20111;-63
2022/07/22 00:07:27;;;;;;;9.20;2.47;;;;;;;;;;5105425;27;20586;-63
2022/07/22 00:09:53;;;;;;;14.88;3.15;;;;;;;;;;5105213;27;20099;-63
2022/07/22 00:12:19;;;;;;;9.45;1.88;;;;;;;;;;5112599;27;20154;-62
2022/07/22 00:14:46;;;;;;;9.98;2.10;;;;;;;;;;5107938;27;20052;-62
2022/07/22 00:17:12;;;;;;;12.20;2.20;;;;;;;;;;5104083;27;20460;-63
2022/07/22 00:19:38;;;;;;;10.15;2.03;;;;;;;;;;5101802;27;20040;-63
2022/07/22 00:22:04;;;;;;;12.20;2.40;;;;;;;;;;5098712;27;20039;-63
2022/07/22 00:24:30;;;;;;;9.23;2.08;;;;;;;;;;5105609;27;20075;-63
2022/07/22 00:26:56;;;;;;;7.65;2.08;;;;;;;;;;5098105;27;20035;-63
2022/07/22 00:29:23;;;;;;;11.18;2.15;;;;;;;;;;5100572;27;20048;-63
2022/07/22 00:31:49;;;;;;;11.07;2.40;;;;;;;;;;5102554;27;20043;-63
2022/07/22 00:34:15;;;;;;;10.90;2.67;;;;;;;;;;5099269;27;20039;-63
2022/07/22 00:36:42;;;;;;;14.98;2.78;;;;;;;;;;5098828;28;20494;-63
2022/07/22 00:39:08;;;;;;;12.95;2.45;;;;;;;;;;5100011;27;20396;-62
2022/07/22 00:41:34;;;;;;;18.75;2.45;;;;;;;;;;5102215;27;20137;-63
2022/07/22 00:44:02;;;;;;;16.02;2.42;;;;;;;;;;5101098;27;20050;-62
2022/07/22 00:46:28;;;;;;;13.73;2.40;;;;;;;;;;5102459;28;20495;-63
2022/07/22 00:48:55;;;;;;;12.10;2.22;;;;;;;;;;5099363;27;20055;-62
2022/07/22 00:51:22;;;;;;;10.10;2.40;;;;;;;;;;5100830;27;20123;-62
2022/07/22 00:53:49;;;;;;;11.88;2.42;;;;;;;;;;5110059;27;20054;-62
2022/07/22 00:56:16;;;;;;;11.93;2.80;;;;;;;;;;5107980;27;20189;-62
2022/07/22 00:58:42;;;;;;;12.35;2.25;;;;;;;;;;5099681;27;20089;-63
2022/07/22 01:01:09;;;;;;;9.73;2.63;;;;;;;;;;5100100;27;20048;-62
2022/07/22 01:03:36;;;;;;;9.68;2.30;;;;;;;;;;5097361;28;20040;-63
2022/07/22 01:06:02;;;;;;;11.73;2.13;;;;;;;;;;5096765;27;20055;-63
2022/07/22 01:08:28;;;;;;;11.02;2.13;;;;;;;;;;5099581;27;20055;-63
2022/07/22 01:10:54;;;;;;;6.65;2.35;;;;;;;;;;5102470;27;20043;-63
2022/07/22 01:13:21;;;;;;;12.38;2.25;;;;;;;;;;5100130;27;20063;-63
2022/07/22 01:15:47;;;;;;;12.75;2.38;;;;;;;;;;5078298;28;20048;-62
2022/07/22 01:18:13;;;;;;;6.10;2.05;;;;;;;;;;5076502;28;20040;-63
2022/07/22 01:20:39;;;;;;;8.32;2.20;;;;;;;;;;5078768;28;20043;-62
2022/07/22 01:23:05;;;;;;;8.00;1.92;;;;;;;;;;5086279;28;20048;-63
2022/07/22 01:25:32;;;;;;;10.50;1.98;;;;;;;;;;5079344;28;20373;-63
2022/07/22 01:27:58;;;;;;;8.55;2.33;;;;;;;;;;5074220;28;20075;-63
2022/07/22 01:30:24;;;;;;;10.82;2.63;;;;;;;;;;5078781;28;20056;-62
2022/07/22 01:32:50;;;;;;;12.65;1.95;;;;;;;;;;5073897;28;20093;-62
2022/07/22 01:35:16;;;;;;;8.75;2.25;;;;;;;;;;5076673;28;20059;-63
2022/07/22 01:37:42;;;;;;;10.10;2.30;;;;;;;;;;5080204;28;20483;-63
2022/07/22 01:40:09;;;;;;;9.32;2.20;;;;;;;;;;5076440;28;20045;-62
2022/07/22 01:42:35;;;;;;;7.70;2.22;;;;;;;;;;5077983;28;20403;-62
2022/07/22 01:45:01;;;;;;;8.10;2.13;;;;;;;;;;5076680;28;20048;-62
2022/07/22 01:47:28;;;;;;;14.40;2.35;;;;;;;;;;5079873;28;20069;-62
2022/07/22 01:49:54;;;;;;;7.05;1.83;;;;;;;;;;5078110;28;20062;-63
2022/07/22 01:52:20;;;;;;;10.30;2.35;;;;;;;;;;5079576;28;20036;-62
2022/07/22 01:54:46;;;;;;;9.73;2.42;;;;;;;;;;5079114;28;20498;-63
2022/07/22 01:57:12;;;;;;;8.93;2.25;;;;;;;;;;5075439;28;20067;-63
2022/07/22 01:59:38;;;;;;;8.30;2.78;;;;;;;;;;5082171;28;20080;-63
2022/07/22 02:02:05;;;;;;;12.77;2.42;;;;;;;;;;5080896;28;20055;-63
2022/07/22 02:04:31;;;;;;;12.20;2.47;;;;;;;;;;5073711;28;20491;-63
2022/07/22 02:06:57;;;;;;;10.45;2.28;;;;;;;;;;5077054;28;20115;-63
2022/07/22 02:09:23;;;;;;;6.72;2.58;;;;;;;;;;5076006;28;20071;-63
2022/07/22 02:11:49;;;;;;;9.73;2.80;;;;;;;;;;5071476;28;20048;-63
2022/07/22 02:14:16;;;;;;;6.40;1.75;;;;;;;;;;5094285;27;20465;-63
2022/07/22 02:16:42;;;;;;;10.98;2.83;;;;;;;;;;5123753;27;20047;-63
2022/07/22 02:19:08;;;;;;;6.15;2.03;;;;;;;;;;5127773;27;20074;-63
2022/07/22 02:21:34;;;;;;;7.40;1.95;;;;;;;;;;5122923;27;20047;-63
2022/07/22 02:24:00;;;;;;;11.20;2.25;;;;;;;;;;5119688;27;20171;-63
2022/07/22 02:26:26;;;;;;;9.75;2.47;;;;;;;;;;5101259;27;20082;-63
2022/07/22 02:28:53;;;;;;;9.25;2.42;;;;;;;;;;5118069;27;20051;-63
2022/07/22 02:31:20;;;;;;;7.70;2.17;;;;;;;;;;5119088;27;20046;-63
2022/07/22 02:33:46;;;;;;;12.90;2.65;;;;;;;;;;5121308;27;20494;-63
2022/07/22 02:36:13;;;;;;;8.13;2.72;;;;;;;;;;5121971;27;20094;-63
2022/07/22 02:38:39;;;;;;;10.23;2.25;;;;;;;;;;5108798;27;20055;-63
2022/07/22 02:41:05;;;;;;;12.48;2.40;;;;;;;;;;5119475;27;20036;-62
2022/07/22 02:43:31;;;;;;;16.10;2.45;;;;;;;;;;5124314;27;20054;-63
2022/07/22 02:45:58;;;;;;;9.18;2.70;;;;;;;;;;5099889;27;20039;-63
2022/07/22 02:48:24;;;;;;;9.70;2.78;;;;;;;;;;5119064;27;20655;-62
2022/07/22 02:50:50;;;;;;;12.15;2.60;;;;;;;;;;5117595;27;20065;-63
2022/07/22 02:53:16;;;;;;;10.38;2.10;;;;;;;;;;5105218;27;20042;-63
2022/07/22 02:55:42;;;;;;;8.73;2.67;;;;;;;;;;5117579;27;20046;-63
2022/07/22 02:58:09;;;;;;;7.85;2.20;;;;;;;;;;5112239;27;20144;-63
2022/07/22 03:00:37;;;;;;;10.80;2.33;;;;;;;;;;5098171;28;20092;-63
2022/07/22 03:03:04;;;;;;;12.68;2.40;;;;;;;;;;5098538;27;20147;-62
2022/07/22 03:05:30;;;;;;;9.65;2.55;;;;;;;;;;5101281;27;20396;-62
2022/07/22 03:07:56;;;;;;;11.10;2.30;;;;;;;;;;5132475;27;20039;-63
2022/07/22 03:10:23;;;;;;;9.15;1.90;;;;;;;;;;5132429;27;20175;-62
2022/07/22 03:12:49;;;;;;;6.28;2.10;;;;;;;;;;5122777;27;20155;-62
2022/07/22 03:15:15;;;;;;;6.90;1.77;;;;;;;;;;5122913;27;20051;-62
2022/07/22 03:17:41;;;;;;;11.18;2.80;;;;;;;;;;5121138;27;20047;-63
2022/07/22 03:20:08;;;;;;;9.30;1.95;;;;;;;;;;5104507;27;20047;-63
2022/07/22 03:22:35;;;;;;;8.50;2.00;;;;;;;;;;5125752;27;20038;-62
2022/07/22 03:25:01;;;;;;;7.85;2.00;;;;;;;;;;5133545;27;20106;-63
2022/07/22 03:27:27;;;;;;;7.85;1.85;;;;;;;;;;5133585;27;20050;-62
2022/07/22 03:29:53;;;;;;;9.82;1.80;;;;;;;;;;5131807;27;20035;-63
2022/07/22 03:32:19;;;;;;;11.32;2.17;;;;;;;;;;5119353;27;20065;-62
2022/07/22 03:34:46;;;;;;;10.73;2.47;;;;;;;;;;5123670;27;20046;-63
2022/07/22 03:37:12;;;;;;;8.15;2.10;;;;;;;;;;5123146;27;20035;-62
2022/07/22 03:39:38;;;;;;;7.78;1.92;;;;;;;;;;5123466;27;20081;-62
2022/07/22 03:42:04;;;;;;;8.95;2.22;;;;;;;;;;5125185;27;20058;-62
2022/07/22 03:44:31;;;;;;;8.75;1.85;;;;;;;;;;5103080;27;20103;-63
2022/07/22 03:46:57;;;;;;;5.47;1.85;;;;;;;;;;5126105;27;20039;-63
2022/07/22 03:49:23;;;;;;;9.55;2.30;;;;;;;;;;5120265;27;20039;-62
2022/07/22 03:51:50;;;;;;;12.40;1.95;;;;;;;;;;5117542;27;20039;-62
2022/07/22 03:54:16;;;;;;;11.60;2.78;;;;;;;;;;5125800;27;20031;-63
2022/07/22 03:56:42;;;;;;;10.05;2.20;;;;;;;;;;5109085;27;20514;-62
2022/07/22 03:59:09;;;;;;;11.07;1.92;;;;;;;;;;5120381;27;20127;-63
2022/07/22 04:01:35;;;;;;;7.90;1.85;;;;;;;;;;5121959;27;20547;-62
2022/07/22 04:04:01;;;;;;;10.65;1.98;;;;;;;;;;5125105;27;20030;-63
2022/07/22 04:06:27;;;;;;;7.82;1.70;;;;;;;;;;5125405;27;20130;-63
2022/07/22 04:08:54;;;;;;;11.35;1.73;;;;;;;;;;5121727;27;20424;-63
2022/07/22 04:11:21;;;;;;;7.78;1.65;;;;;;;;;;5124093;27;20031;-63
2022/07/22 04:13:47;;;;;;;9.05;1.83;;;;;;;;;;5123479;27;20501;-62
2022/07/22 04:16:13;;;;;;;9.40;2.47;;;;;;;;;;5121515;27;20039;-62
2022/07/22 04:18:39;;;;;;;15.60;2.72;;;;;;;;;;5119065;27;20045;-62
2022/07/22 04:21:06;;;;;;;12.65;1.70;;;;;;;;;;5122709;27;20102;-63
2022/07/22 04:23:32;;;;;;;9.00;2.30;;;;;;;;;;5103209;27;20123;-63
2022/07/22 04:25:58;;;;;;;6.15;1.73;;;;;;;;;;5121105;27;20044;-63
2022/07/22 04:28:24;;;;;;;7.65;1.48;;;;;;;;;;5104480;27;20451;-62
2022/07/22 04:30:50;;;;;;;4.53;1.42;;;;;;;;;;5120178;27;20039;-63
2022/07/22 04:33:17;;;;;;;6.95;1.58;;;;;;;;;;5125991;27;20698;-63
2022/07/22 04:35:43;;;;;;;8.85;1.70;;;;;;;;;;5118290;27;20158;-63
2022/07/22 04:38:09;;;;;;;6.57;1.50;;;;;;;;;;5119109;27;22057;-62
2022/07/22 04:40:36;;;;;;;9.48;1.98;;;;;;;;;;5120552;27;20046;-62
2022/07/22 04:43:02;;;;;;;6.35;1.70;;;;;;;;;;5118508;27;20466;-62
2022/07/22 04:45:28;;;;;;;10.07;1.80;;;;;;;;;;5120150;27;20038;-62
2022/07/22 04:47:54;;;;;;;4.18;1.23;;;;;;;;;;5120998;27;20418;-62
2022/07/22 04:50:20;;;;;;;7.82;1.38;;;;;;;;;;5120349;27;20031;-62
2022/07/22 04:52:47;;;;;;;9.00;2.03;;;;;;;;;;5122516;27;20126;-62
2022/07/22 04:55:13;;;;;;;5.57;1.52;;;;;;;;;;5118840;27;20127;-62
2022/07/22 04:57:39;;;;;;;9.05;1.77;;;;;;;;;;5121623;27;20567;-63
2022/07/22 05:00:05;;;;;;;7.32;1.67;;;;;;;;;;5101208;27;20135;-63
2022/07/22 05:02:32;;;;;;;4.50;1.27;;;;;;;;;;5100745;27;20493;-62
2022/07/22 05:04:59;;;;;;;9.10;1.60;;;;;;;;;;5121144;27;20036;-62
2022/07/22 05:07:25;;;;;;;9.98;1.88;;;;;;;;;;5117508;27;20043;-63
2022/07/22 05:09:51;;;;;;;7.95;1.77;;;;;;;;;;5118575;27;20047;-63
2022/07/22 05:12:17;;;;;;;11.57;1.80;;;;;;;;;;5118282;27;20506;-63
2022/07/22 05:14:43;;;;;;;6.15;1.50;;;;;;;;;;5119037;27;20158;-63
2022/07/22 05:17:11;;;;;;;8.52;1.98;;;;;;;;;;5121483;27;20086;-63
2022/07/22 05:19:39;;;;;;;8.60;1.80;;;;;;;;;;5120647;27;20039;-63
2022/07/22 05:22:06;;;;;;;5.90;1.50;;;;;;;;;;5097298;27;20117;-63
2022/07/22 05:24:32;;;;;;;7.15;1.67;;;;;;;;;;5094331;27;20051;-63
2022/07/22 05:26:59;;;;;;;7.97;1.50;;;;;;;;;;5117518;27;20394;-63
2022/07/22 05:29:25;;;;;;;8.13;1.80;;;;;;;;;;5123250;27;20038;-63
2022/07/22 05:31:51;;;;;;;10.25;1.83;;;;;;;;;;5115512;27;20062;-63
2022/07/22 05:34:17;;;;;;;10.13;1.98;;;;;;;;;;5115859;27;20043;-63
2022/07/22 05:36:43;;;;;;;11.82;2.25;;;;;;;;;;5120477;27;20058;-63
2022/07/22 05:39:10;;;;;;;7.35;2.20;;;;;;;;;;5124584;27;20047;-63
2022/07/22 05:41:37;;;;;;;7.93;2.00;;;;;;;;;;5103507;27;20521;-63
2022/07/22 05:44:03;;;;;;;8.50;1.95;;;;;;;;;;5119803;27;20110;-63
2022/07/22 05:46:30;;;;;;;8.57;2.10;;;;;;;;;;5121357;27;20053;-63
2022/07/22 05:48:56;;;;;;;8.82;1.80;;;;;;;;;;5117409;27;20088;-63
2022/07/22 05:51:22;;;;;;;7.05;1.85;;;;;;;;;;5121380;27;20129;-63
2022/07/22 05:53:48;;;;;;;4.65;1.25;;;;;;;;;;5120599;27;20043;-64
2022/07/22 05:56:15;;;;;;;9.38;2.08;;;;;;;;;;5121594;27;20058;-64
2022/07/22 05:58:41;;;;;;;11.88;2.45;;;;;;;;;;5106584;27;20586;-64
2022/07/22 06:01:08;;;;;;;8.93;2.00;;;;;;;;;;5124031;27;20051;-64
2022/07/22 06:03:34;;;;;;;9.80;1.95;;;;;;;;;;5116311;27;20448;-64
2022/07/22 06:06:02;;;;;;;13.48;2.55;;;;;;;;;;5126202;27;20071;-64
2022/07/22 06:08:28;;;;;;;11.07;2.05;;;;;;;;;;5126006;27;20047;-64
2022/07/22 06:10:55;;;;;;;9.48;1.70;;;;;;;;;;5134702;27;20504;-64
2022/07/22 06:13:21;;;;;;;6.75;2.30;;;;;;;;;;5139666;27;20057;-64
2022/07/22 06:15:48;;;;;;;10.98;2.22;;;;;;;;;;5134076;27;20051;-64
2022/07/22 06:18:15;;;;;;;5.43;1.50;;;;;;;;;;5131224;27;20162;-64
2022/07/22 06:20:41;;;;;;;6.55;1.80;;;;;;;;;;5123546;27;20039;-64
2022/07/22 06:23:07;;;;;;;8.15;2.17;;;;;;;;;;5128483;27;20061;-64
2022/07/22 06:25:33;;;;;;;6.72;1.63;;;;;;;;;;5124801;27;20043;-64
2022/07/22 06:28:00;;;;;;;8.63;2.28;;;;;;;;;;5122494;27;20146;-64
2022/07/22 06:30:26;;;;;;;7.93;2.30;;;;;;;;;;5125402;27;20038;-64
2022/07/22 06:32:52;;;;;;;7.47;1.65;;;;;;;;;;5122043;27;20066;-64
2022/07/22 06:35:19;;;;;;;14.32;1.92;;;;;;;;;;5123821;27;20066;-64
2022/07/22 06:37:45;;;;;;;12.07;2.40;;;;;;;;;;5124843;27;20039;-64
2022/07/22 06:40:12;;;;;;;11.70;1.95;;;;;;;;;;5123913;27;20039;-63
2022/07/22 06:42:38;;;;;;;9.88;2.60;;;;;;;;;;5123981;27;20059;-64
2022/07/22 06:45:04;;;;;;;7.90;1.80;;;;;;;;;;5107480;27;20049;-64
2022/07/22 06:47:31;;;;;;;7.70;2.15;;;;;;;;;;5135432;27;20393;-64
2022/07/22 06:49:58;;;;;;;7.40;1.63;;;;;;;;;;5119117;27;20501;-64
2022/07/22 06:52:24;;;;;;;9.77;1.70;;;;;;;;;;5141728;27;20131;-64
2022/07/22 06:54:50;;;;;;;11.80;2.90;;;;;;;;;;5139720;27;20324;-64
2022/07/22 06:57:16;;;;;;;10.60;1.90;;;;;;;;;;5140513;27;20077;-64
2022/07/22 06:59:43;;;;;;;9.50;1.67;;;;;;;;;;5141159;27;21763;-65
2022/07/22 07:02:09;;;;;;;6.43;1.45;;;;;;;;;;5137001;27;20662;-64
2022/07/22 07:04:35;;;;;;;5.00;1.50;;;;;;;;;;5107488;27;20031;-64
2022/07/22 07:07:01;;;;;;;5.55;1.60;;;;;;;;;;5120701;27;20138;-64
2022/07/22 07:09:27;;;;;;;7.47;1.55;;;;;;;;;;5121020;27;20039;-64
2022/07/22 07:11:53;;;;;;;9.15;1.38;;;;;;;;;;5140286;27;20046;-64
2022/07/22 07:14:20;;;;;;;6.63;1.10;;;;;;;;;;5130368;27;20108;-65
2022/07/22 07:16:46;;;;;;;4.45;1.00;;;;;;;;;;5141018;27;20079;-64
2022/07/22 07:19:12;;;;;;;10.05;1.30;;;;;;;;;;5134976;27;20035;-64
2022/07/22 07:21:39;;;;;;;6.68;1.00;;;;;;;;;;5132743;27;20034;-65
2022/07/22 07:24:05;;;;;;;6.85;1.25;;;;;;;;;;5140174;27;20462;-64
2022/07/22 07:26:31;;;;;;;9.32;1.30;;;;;;;;;;5140622;27;21505;-65
2022/07/22 07:28:58;;;;;;;7.13;1.42;;;;;;;;;;5142609;27;20038;-65
2022/07/22 07:31:24;;;;;;;4.38;1.45;;;;;;;;;;5117015;28;20520;-65
2022/07/22 07:33:50;;;;;;;7.85;0.93;;;;;;;;;;5136566;27;20046;-65
2022/07/22 07:36:17;;;;;;;6.85;1.25;;;;;;;;;;5125870;27;20046;-65
2022/07/22 07:38:43;;;;;;;4.80;1.15;;;;;;;;;;5125929;27;20039;-65
2022/07/22 07:41:10;;;;;;;8.13;1.58;;;;;;;;;;5116370;28;20118;-64
2022/07/22 07:43:36;;;;;;;5.85;1.50;;;;;;;;;;5143942;27;20049;-65
2022/07/22 07:46:02;;;;;;;5.60;1.05;;;;;;;;;;5140616;27;20034;-64
2022/07/22 07:48:28;;;;;;;4.60;1.17;;;;;;;;;;5139874;27;20398;-64
2022/07/22 07:50:55;;;;;;;2.08;1.10;;;;;;;;;;5139864;27;20489;-64
2022/07/22 07:53:21;;;;;;;3.28;1.15;;;;;;;;;;5141305;27;20043;-64
2022/07/22 07:55:47;;;;;;;5.68;0.98;;;;;;;;;;5145236;27;20146;-65
2022/07/22 07:58:13;;;;;;;4.78;1.00;;;;;;;;;;5142995;27;20046;-64
2022/07/22 08:00:42;;;;;;;1.75;0.43;;;;;;;;;;5144887;27;20505;-64
2022/07/22 08:03:08;;;;;;;2.70;0.75;;;;;;;;;;5144626;27;20078;-64
2022/07/22 08:05:35;;;;;;;2.83;0.73;;;;;;;;;;5122767;27;20053;-65
2022/07/22 08:08:01;;;;;;;7.95;0.95;;;;;;;;;;5144632;27;20050;-65
2022/07/22 08:10:28;;;;;;;5.45;1.38;;;;;;;;;;5137728;27;20399;-64
2022/07/22 08:12:55;;;;;;;2.05;0.50;;;;;;;;;;5143034;27;20051;-65
2022/07/22 08:15:21;;;;;;;3.38;0.60;;;;;;;;;;5124836;27;20485;-65
2022/07/22 08:17:47;;;;;;;3.10;0.88;;;;;;;;;;5143785;27;20061;-65
2022/07/22 08:20:14;;;;;;;2.40;0.60;;;;;;;;;;5146778;27;20034;-65
2022/07/22 08:22:40;;;;;;;1.70;0.95;;;;;;;;;;5137654;27;20058;-64
2022/07/22 08:25:06;;;;;;;2.67;1.02;;;;;;;;;;5143443;27;20431;-65
2022/07/22 08:27:32;;;;;;;1.98;0.73;;;;;;;;;;5138948;27;20035;-64
2022/07/22 08:29:58;;;;;;;4.82;0.80;;;;;;;;;;5138869;27;20135;-65
2022/07/22 08:32:25;;;;;;;7.35;1.08;;;;;;;;;;5135327;27;20050;-65
2022/07/22 08:34:51;;;;;;;2.20;0.77;;;;;;;;;;5135426;27;20062;-65
2022/07/22 08:37:18;;;;;;;3.72;0.80;;;;;;;;;;5126939;27;20400;-64
2022/07/22 08:39:44;;;;;;;4.22;0.90;;;;;;;;;;5136405;27;20439;-64
2022/07/22 08:42:10;;;;;;;3.33;0.93;;;;;;;;;;5142439;27;20125;-65
2022/07/22 08:44:36;;;;;;;4.32;0.98;;;;;;;;;;5143425;27;20035;-65
2022/07/22 08:47:03;;;;;;;4.47;0.80;;;;;;;;;;5125708;27;20499;-64
2022/07/22 08:49:29;;;;;;;2.00;0.90;;;;;;;;;;5145019;27;20223;-64
2022/07/22 08:51:55;;;;;;;4.72;0.93;;;;;;;;;;5123437;27;20047;-64
2022/07/22 08:54:21;;;;;;;4.20;0.90;;;;;;;;;;5144508;27;20114;-64
2022/07/22 08:56:48;;;;;;;5.00;1.05;;;;;;;;;;5122175;27;20046;-65
2022/07/22 08:59:14;;;;;;;3.08;0.98;;;;;;;;;;5144810;27;20139;-64
2022/07/22 09:02:00;;;;;;;7.05;1.30;;;;;;;;;;5142099;27;20035;-65
2022/07/22 09:04:26;;;;;;;3.22;1.00;;;;;;;;;;5138324;27;20126;-65
2022/07/22 09:06:53;;;;;;;6.45;0.90;;;;;;;;;;5127949;27;20096;-65
2022/07/22 09:09:29;;;;;;;6.40;0.93;;;;;;;;;;5140737;27;20140;-65
2022/07/22 09:12:09;;;;;;;5.05;1.00;;;;;;;;;;5142947;27;20087;-65
2022/07/22 09:14:45;;;;;;;6.03;1.02;;;;;;;;;;5143391;27;20443;-65
2022/07/22 09:17:23;;;;;;;4.63;1.02;;;;;;;;;;5140375;27;20389;-64
2022/07/22 09:19:49;;;;;;;3.75;0.90;;;;;;;;;;5144908;27;20111;-65
2022/07/22 09:22:16;;;;;;;5.65;0.77;;;;;;;;;;5139560;27;20050;-65
2022/07/22 09:24:42;;;;;;;6.30;1.17;;;;;;;;;;5124021;27;20723;-65
2022/07/22 09:27:08;;;;;;;6.25;0.82;;;;;;;;;;5142379;27;20034;-64
2022/07/22 09:29:35;;;;;;;3.92;1.13;;;;;;;;;;5140490;27;20043;-64
2022/07/22 09:32:01;;;;;;;2.25;0.70;;;;;;;;;;5143395;27;20443;-65
2022/07/22 09:34:29;;;;;;;4.18;0.73;;;;;;;;;;5143882;27;20072;-64
2022/07/22 09:36:56;;;;;;;5.03;0.80;;;;;;;;;;5140245;27;20038;-64
2022/07/22 09:39:26;;;;;;;2.78;0.45;;;;;;;;;;5121940;27;20087;-65
2022/07/22 09:41:58;;;;;;;2.63;0.63;;;;;;;;;;5141970;27;20164;-65
2022/07/22 09:44:24;;;;;;;1.73;0.50;;;;;;;;;;5141535;27;20127;-65
2022/07/22 09:46:50;;;;;;;3.17;0.88;;;;;;;;;;5142634;27;20137;-65
2022/07/22 09:49:31;;;;;;;8.57;0.60;;;;;;;;;;5122553;27;20513;-65
2022/07/22 09:51:57;;;;;;;1.67;0.38;;;;;;;;;;5139105;27;20051;-65
2022/07/22 09:54:23;;;;;;;3.40;0.52;;;;;;;;;;5108867;27;20406;-65
2022/07/22 09:56:50;;;;;;;1.58;0.30;;;;;;;;;;5122133;27;20194;-65
2022/07/22 09:59:16;;;;;;;1.65;0.50;;;;;;;;;;5135938;27;20041;-64
2022/07/22 10:01:42;;;;;;;1.60;0.50;;;;;;;;;;5111240;27;20054;-64
2022/07/22 10:04:11;;;;;;;3.22;0.77;;;;;;;;;;5126752;27;20035;-65
2022/07/22 10:06:38;;;;;;;6.97;0.88;;;;;;;;;;5129427;27;20047;-65
2022/07/22 10:09:07;;;;;;;2.08;0.50;;;;;;;;;;5113782;27;20510;-65
2022/07/22 10:11:34;;;;;;;1.92;0.60;;;;;;;;;;5130203;27;20043;-65
2022/07/22 10:14:00;;;;;;;3.13;0.50;;;;;;;;;;5128320;27;20397;-64
2022/07/22 10:16:27;;;;;;;1.85;0.50;;;;;;;;;;5126285;27;20051;-65
2022/07/22 10:18:53;;;;;;;2.50;0.75;;;;;;;;;;5126461;27;20115;-65
2022/07/22 10:21:19;;;;;;;2.22;0.68;;;;;;;;;;5136779;27;20039;-65
2022/07/22 10:24:05;;;;;;;3.53;0.75;;;;;;;;;;5114947;27;20393;-65
2022/07/22 10:26:47;;;;;;;4.88;0.70;;;;;;;;;;5133280;27;20075;-65
2022/07/22 10:29:26;;;;;;;4.10;0.80;;;;;;;;;;5127749;27;20038;-65
2022/07/22 10:32:11;;;;;;;3.50;0.60;;;;;;;;;;5105709;27;20055;-65
2022/07/22 10:34:37;;;;;;;3.63;0.68;;;;;;;;;;5124285;27;20043;-65
2022/07/22 10:37:04;;;;;;;3.97;0.68;;;;;;;;;;5137994;27;20035;-65
2022/07/22 10:39:30;;;;;;;2.80;0.70;;;;;;;;;;5138495;27;20043;-65
2022/07/22 10:41:56;;;;;;;1.58;0.47;;;;;;;;;;5108878;27;20378;-65
2022/07/22 10:44:49;;;;;;;4.70;0.82;;;;;;;;;;5110845;27;20092;-65
2022/07/22 10:47:15;;;;;;;1.60;0.70;;;;;;;;;;5111715;27;20038;-64
2022/07/22 10:49:42;;;;;;;4.70;0.80;;;;;;;;;;5107209;27;20510;-65
2022/07/22 10:52:08;;;;;;;6.43;0.93;;;;;;;;;;5121988;27;20123;-64
2022/07/22 10:54:34;;;;;;;4.70;0.70;;;;;;;;;;5132310;27;20047;-65
2022/07/22 10:57:01;;;;;;;2.08;0.50;;;;;;;;;;5124396;27;20878;-65
2022/07/22 10:59:27;;;;;;;2.83;0.70;;;;;;;;;;5122607;27;20032;-65
2022/07/22 11:01:57;;;;;;;4.72;0.60;;;;;;;;;;5127346;27;20517;-65
2022/07/22 11:04:25;;;;;;;4.22;0.70;;;;;;;;;;5109340;27;20055;-65
2022/07/22 11:06:55;;;;;;;3.83;0.80;;;;;;;;;;5106232;27;20059;-65
2022/07/22 11:09:23;;;;;;;3.08;0.70;;;;;;;;;;5133024;27;20050;-65
2022/07/22 11:11:50;;;;;;;1.83;0.63;;;;;;;;;;5092175;27;20502;-64
2022/07/22 11:14:20;;;;;;;4.95;0.68;;;;;;;;;;5126952;27;20050;-65
2022/07/22 11:16:47;;;;;;;2.95;0.60;;;;;;;;;;5134321;27;20044;-65
2022/07/22 11:19:13;;;;;;;3.05;0.70;;;;;;;;;;5137901;27;20752;-65
2022/07/22 11:21:39;;;;;;;4.75;0.70;;;;;;;;;;5139138;27;20051;-65
2022/07/22 11:24:07;;;;;;;1.58;0.57;;;;;;;;;;5138985;27;20031;-65
2022/07/22 11:26:41;;;;;;;3.25;0.75;;;;;;;;;;5142277;27;20061;-65
2022/07/22 11:29:08;;;;;;;4.18;0.65;;;;;;;;;;5139406;27;20041;-65
2022/07/22 11:31:35;;;;;;;2.53;0.70;;;;;;;;;;5145323;27;20043;-65
2022/07/22 11:34:06;;;;;;;4.05;0.60;;;;;;;;;;5127783;27;20051;-65
2022/07/22 11:36:33;;;;;;;9.48;0.85;;;;;;;;;;5143922;27;20043;-65
2022/07/22 11:38:59;;;;;;;3.22;0.70;;;;;;;;;;5144394;27;20035;-65
2022/07/22 11:41:28;;;;;;;2.40;0.73;;;;;;;;;;5144467;27;20065;-65
2022/07/22 11:43:55;;;;;;;3.00;0.80;;;;;;;;;;5127504;27;20111;-65
2022/07/22 11:46:23;;;;;;;4.35;0.82;;;;;;;;;;5144996;27;20039;-65
2022/07/22 11:48:49;;;;;;;4.13;0.90;;;;;;;;;;5140829;27;20046;-65
2022/07/22 11:51:15;;;;;;;4.80;0.75;;;;;;;;;;5144986;27;20390;-65
2022/07/22 11:53:42;;;;;;;4.20;0.93;;;;;;;;;;5144532;27;20030;-65
2022/07/22 11:56:09;;;;;;;8.57;1.17;;;;;;;;;;5143947;27;20435;-65
2022/07/22 11:58:36;;;;;;;6.72;1.60;;;;;;;;;;5144585;27;20149;-65
2022/07/22 12:01:04;;;;;;;3.63;0.90;;;;;;;;;;5126999;27;20134;-65
2022/07/22 12:03:30;;;;;;;2.83;0.77;;;;;;;;;;5142439;27;20050;-65
2022/07/22 12:05:57;;;;;;;7.70;1.38;;;;;;;;;;5141416;27;20050;-65
2022/07/22 12:08:23;;;;;;;4.32;1.10;;;;;;;;;;5144222;27;20418;-65
2022/07/22 12:10:49;;;;;;;8.13;1.08;;;;;;;;;;5124904;27;20450;-65
2022/07/22 12:13:16;;;;;;;4.90;0.90;;;;;;;;;;5144564;27;20046;-65
2022/07/22 12:15:42;;;;;;;10.90;1.10;;;;;;;;;;5141852;27;20087;-65
2022/07/22 12:18:15;;;;;;;6.15;1.10;;;;;;;;;;5127394;27;20466;-65
2022/07/22 12:20:47;;;;;;;4.40;1.05;;;;;;;;;;5141359;27;20130;-65
2022/07/22 12:23:14;;;;;;;3.90;1.00;;;;;;;;;;5145547;27;20370;-65
2022/07/22 12:25:52;;;;;;;4.93;1.02;;;;;;;;;;5144056;27;20091;-65
2022/07/22 12:28:19;;;;;;;5.75;1.17;;;;;;;;;;5139272;27;20043;-65
2022/07/22 12:30:45;;;;;;;4.47;1.00;;;;;;;;;;5131355;27;20084;-65
2022/07/22 12:33:15;;;;;;;3.42;0.90;;;;;;;;;;5131704;27;20607;-65
2022/07/22 12:35:42;;;;;;;7.05;1.20;;;;;;;;;;5141666;27;20451;-65
2022/07/22 12:38:09;;;;;;;7.65;1.10;;;;;;;;;;5142886;27;20121;-65
2022/07/22 12:40:36;;;;;;;5.78;0.90;;;;;;;;;;5147619;27;20064;-65
2022/07/22 12:43:04;;;;;;;5.30;1.02;;;;;;;;;;5134693;27;20088;-65
2022/07/22 12:45:32;;;;;;;6.78;1.38;;;;;;;;;;5140768;27;20133;-65
2022/07/22 12:48:06;;;;;;;4.05;0.90;;;;;;;;;;5139006;27;20047;-65
2022/07/22 12:50:40;;;;;;;8.43;1.92;;;;;;;;;;5145457;27;20051;-65
2022/07/22 12:53:09;;;;;;;3.38;1.05;;;;;;;;;;5142438;27;20058;-65
2022/07/22 12:55:37;;;;;;;7.07;1.20;;;;;;;;;;5138926;27;20098;-65
2022/07/22 12:58:04;;;;;;;4.57;1.02;;;;;;;;;;5123784;27;20043;-65
2022/07/22 13:00:32;;;;;;;4.32;0.90;;;;;;;;;;5143812;27;20555;-65
2022/07/22 13:02:58;;;;;;;2.63;0.90;;;;;;;;;;5139446;27;20170;-65
2022/07/22 13:05:25;;;;;;;6.18;1.17;;;;;;;;;;5140395;27;20118;-65
2022/07/22 13:07:53;;;;;;;3.72;1.00;;;;;;;;;;5142222;27;20134;-65
2022/07/22 13:10:20;;;;;;;4.88;0.90;;;;;;;;;;5134018;27;20122;-65
2022/07/22 13:12:46;;;;;;;4.18;1.00;;;;;;;;;;5140583;27;20043;-65
2022/07/22 13:15:12;;;;;;;5.88;1.83;;;;;;;;;;5136647;27;20039;-65
2022/07/22 13:17:39;;;;;;;3.97;0.80;;;;;;;;;;5142908;27;20494;-65
2022/07/22 13:20:06;;;;;;;5.03;0.90;;;;;;;;;;5144197;27;20039;-65
2022/07/22 13:22:32;;;;;;;4.13;1.00;;;;;;;;;;5141166;27;20096;-65
2022/07/22 13:24:58;;;;;;;4.32;1.08;;;;;;;;;;5141974;27;20062;-65
2022/07/22 13:27:25;;;;;;;4.65;1.00;;;;;;;;;;5142256;27;20594;-65
2022/07/22 13:29:51;;;;;;;2.35;1.10;;;;;;;;;;5142913;27;20099;-65
2022/07/22 13:32:17;;;;;;;3.58;0.90;;;;;;;;;;5141616;27;20071;-65
2022/07/22 13:34:44;;;;;;;1.73;0.80;;;;;;;;;;5144970;27;20043;-65
2022/07/22 13:37:10;;;;;;;5.80;1.05;;;;;;;;;;5136003;27;20035;-65
2022/07/22 13:39:36;;;;;;;3.15;1.00;;;;;;;;;;5139858;27;20571;-65
2022/07/22 13:42:03;;;;;;;6.38;1.05;;;;;;;;;;5126659;27;20035;-64
2022/07/22 13:44:29;;;;;;;5.28;0.95;;;;;;;;;;5128149;27;20120;-66
2022/07/22 13:46:58;;;;;;;3.25;1.05;;;;;;;;;;5131259;27;20031;-66
2022/07/22 13:49:24;;;;;;;3.38;1.15;;;;;;;;;;5138079;27;20519;-66
2022/07/22 13:51:51;;;;;;;5.55;1.35;;;;;;;;;;5127721;27;20439;-67
2022/07/22 13:54:17;;;;;;;4.30;1.25;;;;;;;;;;5124121;27;20043;-68
2022/07/22 13:56:44;;;;;;;3.10;0.88;;;;;;;;;;5101442;27;20490;-68
2022/07/22 13:59:10;;;;;;;5.72;1.20;;;;;;;;;;5125641;27;20047;-68
2022/07/22 14:01:37;;;;;;;4.18;1.13;;;;;;;;;;5122661;27;20031;-67
2022/07/22 14:04:04;;;;;;;3.83;1.20;;;;;;;;;;5123980;27;20157;-68
2022/07/22 14:06:31;;;;;;;3.25;1.33;;;;;;;;;;5105457;27;20390;-67
2022/07/22 14:08:57;;;;;;;9.40;1.83;;;;;;;;;;5107333;27;20067;-68
2022/07/22 14:11:23;;;;;;;8.63;1.70;;;;;;;;;;5105582;27;20043;-67
2022/07/22 14:13:49;;;;;;;3.25;0.93;;;;;;;;;;5122925;27;20418;-68
2022/07/22 14:16:34;;;;;;;6.53;1.30;;;;;;;;;;5121862;27;20051;-68
2022/07/22 14:19:01;;;;;;;8.35;1.90;;;;;;;;;;5120415;27;20050;-67
2022/07/22 14:21:27;;;;;;;8.20;1.27;;;;;;;;;;5104797;27;20544;-67
2022/07/22 14:23:53;;;;;;;4.13;1.30;;;;;;;;;;5118532;27;20134;-67
2022/07/22 14:26:20;;;;;;;5.57;1.20;;;;;;;;;;5125876;27;20118;-68
2022/07/22 14:28:46;;;;;;;5.90;1.05;;;;;;;;;;5136097;27;20043;-67
2022/07/22 14:31:12;;;;;;;3.08;0.82;;;;;;;;;;5103002;27;20057;-68
2022/07/22 14:33:38;;;;;;;4.70;1.00;;;;;;;;;;5122819;27;20135;-67
2022/07/22 14:36:04;;;;;;;7.95;1.08;;;;;;;;;;5119746;27;20039;-67
2022/07/22 14:38:31;;;;;;;5.75;1.10;;;;;;;;;;5132742;27;20074;-67